Morning Charlotte — 3EMA2 — position and weather

sailwx.info

Track history (hours):
 
Tides and Currents Weather Stations Pressure Air Temp Water Temp Dewpoint Dewpoint Depression Visibility Wind Speed Wind Dir Waves Ship Positions

Morning Charlotte

Last reported at 2017-Mar-14 11:30 UTC. Time now 2017-Mar-23 12:26 UTC.
Position N 36°25' E 014°44'.
Warning: this ship's position is 9 days out of date.

Length 200 m; draft 9.4 m.

Type: Cargo ship. MMSI: 357275000.

Date/timePositionNaut miles runAvg speedWind from/ knotsBaromVisibWave heightAir tempDewpointWater temp
2017-Mar-14 11:30N 36°25' E 014°44'1616.8
2017-Mar-14 10:33N 36°29' E 014°24'1716.7
2017-Mar-14 09:34N 36°33' E 014°05'1716.4
2017-Mar-14 08:33N 36°37' E 013°45'65117.0
2017-Mar-12 18:12N 36°49' E 000°13'24618.0
2017-Mar-12 04:32N 36°03' W 004°47'1919.2
2017-Mar-12 03:33N 36°00' W 005°11'2019.7
2017-Mar-12 02:33N 35°55' W 005°34'1919.0
2017-Mar-12 01:34N 35°53' W 005°58'16117.5
2017-Mar-11 16:21N 36°33' W 009°11'1517.5
2017-Mar-11 15:31N 36°42' W 009°25'1817.1
2017-Mar-11 14:27N 36°58' W 009°36'1617.6
2017-Mar-11 13:33N 37°13' W 009°40'1917.9
2017-Mar-11 12:30N 37°32' W 009°46'1917.7
2017-Mar-11 11:27N 37°50' W 009°52'1617.7
2017-Mar-11 10:33N 38°05' W 009°57'1817.8
2017-Mar-11 09:33N 38°22' W 010°01'1817.7
2017-Mar-11 08:33N 38°40' W 010°07'1717.3
2017-Mar-11 07:33N 38°57' W 010°05'1817.9
2017-Mar-11 06:33N 39°15' W 010°04'2617.5
2017-Mar-11 05:06N 39°40' W 010°04'4917.5
2017-Mar-11 02:19N 40°29' W 010°05'3317.3
2017-Mar-11 00:23N 41°02' W 010°05'3117.1
2017-Mar-10 22:33N 41°34' W 010°05'1717.1
2017-Mar-10 21:33N 41°51' W 010°05'1717.2
2017-Mar-10 20:33N 42°08' W 010°05'1817.2
2017-Mar-10 19:30N 42°26' W 010°09'1617.1
2017-Mar-10 18:33N 42°42' W 010°08'38916.1
2017-Mar-09 18:21N 48°32' W 006°05'1316.8
2017-Mar-09 17:33N 48°44' W 005°56'1515.5
2017-Mar-09 16:33N 48°57' W 005°43'1514.7
2017-Mar-09 15:34N 49°05' W 005°24'1413.7
2017-Mar-09 14:32N 49°13' W 005°06'1514.1
2017-Mar-09 13:28N 49°20' W 004°46'5015.4
2017-Mar-09 10:13N 49°44' W 003°38'1116.7
2017-Mar-09 09:34N 49°50' W 003°24'1716.5
2017-Mar-09 08:34N 49°58' W 003°02'1515.5
2017-Mar-09 07:34N 50°03' W 002°39'1414.2
2017-Mar-09 06:34N 50°08' W 002°18'1313.1
2017-Mar-09 05:33N 50°12' W 001°58'1312.7
2017-Mar-09 04:33N 50°16' W 001°40'1313.4
2017-Mar-09 03:34N 50°21' W 001°20'1414.4
2017-Mar-09 02:33N 50°30' W 001°03'1211.7
2017-Mar-09 01:34N 50°41' W 000°57'1313.0
2017-Mar-09 00:34N 50°46' W 001°15'7 6.7
2017-Mar-08 23:33N 50°52' W 001°22'2 2.1
2017-Mar-08 22:33N 50°53' W 001°24'0 0.0
2017-Mar-08 21:33N 50°53' W 001°24'0 0.0
2017-Mar-08 20:33N 50°53' W 001°24'0 0.0
2017-Mar-08 19:33N 50°53' W 001°24'0 0.0
2017-Mar-08 18:33N 50°53' W 001°24'0 0.0
2017-Mar-08 17:30N 50°53' W 001°24'0 0.0
2017-Mar-08 16:33N 50°53' W 001°24'0 0.0
2017-Mar-08 15:33N 50°53' W 001°24'0 0.0
2017-Mar-08 14:33N 50°53' W 001°24'0 0.0
2017-Mar-08 13:33N 50°53' W 001°24'0 0.0
2017-Mar-08 12:30N 50°53' W 001°24'0 0.0
2017-Mar-08 11:33N 50°53' W 001°24'4 3.6
2017-Mar-08 10:33N 50°51' W 001°20'1010.4
2017-Mar-08 09:33N 50°45' W 001°06'1010.5
2017-Mar-08 08:34N 50°38' W 000°54'1111.2
2017-Mar-08 07:33N 50°34' W 000°37'1616.2
2017-Mar-08 06:33N 50°31' W 000°12'1515.3
2017-Mar-08 05:33N 50°34' E 000°11'1514.8
2017-Mar-08 04:33N 50°37' E 000°34'1515.4
2017-Mar-08 03:33N 50°45' E 000°55'1716.9
2017-Mar-08 02:33N 50°57' E 001°15'1817.5
2017-Mar-08 01:33N 51°08' E 001°35'1717.0
2017-Mar-08 00:33N 51°20' E 001°54'1414.1
2017-Mar-07 23:33N 51°21' E 002°17'1515.0
2017-Mar-07 22:33N 51°23' E 002°41'1312.8
2017-Mar-07 21:33N 51°24' E 003°01'1514.8
2017-Mar-07 20:33N 51°25' E 003°25'9 9.0
2017-Mar-07 19:33N 51°26' E 003°39'1110.8
2017-Mar-07 18:33N 51°22' E 003°54'7 7.1
2017-Mar-07 17:33N 51°22' E 004°06'8 7.8
2017-Mar-07 16:33N 51°18' E 004°17'3 2.5
2017-Mar-07 15:33N 51°16' E 004°17'2 2.1
2017-Mar-07 14:33N 51°17' E 004°14'1 0.5
2017-Mar-07 13:32N 51°16' E 004°13'0 0.0
2017-Mar-07 12:32N 51°16' E 004°13'0 0.0
2017-Mar-07 11:29N 51°16' E 004°13'0 0.0
2017-Mar-07 10:32N 51°16' E 004°13'0 0.0
2017-Mar-07 09:32N 51°16' E 004°13'0 0.0
2017-Mar-07 08:32N 51°16' E 004°13'0 0.0
2017-Mar-07 07:32N 51°16' E 004°13'0 0.0
2017-Mar-07 06:32N 51°16' E 004°13'0 0.0
2017-Mar-07 05:32N 51°16' E 004°13'0 0.0
2017-Mar-07 04:32N 51°16' E 004°13'0 0.0
2017-Mar-07 03:32N 51°16' E 004°13'0 0.0
2017-Mar-07 02:32N 51°16' E 004°13'0 0.0
2017-Mar-07 01:32N 51°16' E 004°13'0 0.0
2017-Mar-07 00:32N 51°16' E 004°13'0 0.0
2017-Mar-06 23:32N 51°16' E 004°13'0 0.0
2017-Mar-06 22:32N 51°16' E 004°13'0 0.0
2017-Mar-06 21:32N 51°16' E 004°13'0 0.0
2017-Mar-06 20:32N 51°16' E 004°13'0 0.0
2017-Mar-06 19:32N 51°16' E 004°13'0 0.0
2017-Mar-06 18:32N 51°16' E 004°13'0 0.0
2017-Mar-06 17:32N 51°16' E 004°13'0 0.0
2017-Mar-06 16:32N 51°16' E 004°13'0 0.0
2017-Mar-06 15:32N 51°16' E 004°13'0 0.0
2017-Mar-06 14:32N 51°16' E 004°13'0 0.0
2017-Mar-06 13:33N 51°16' E 004°13'0 0.0
2017-Mar-06 12:29N 51°16' E 004°13'0 0.0
2017-Mar-06 11:32N 51°16' E 004°13'0 0.0
2017-Mar-06 10:32N 51°16' E 004°13'0 0.0
2017-Mar-06 09:32N 51°16' E 004°13'0 0.0
2017-Mar-06 08:32N 51°16' E 004°13'0 0.0
2017-Mar-06 07:32N 51°16' E 004°13'0 0.0
2017-Mar-06 06:32N 51°16' E 004°13'0 0.0
2017-Mar-06 05:32N 51°16' E 004°13'0 0.0
2017-Mar-06 04:32N 51°16' E 004°13'0 0.0
2017-Mar-06 03:32N 51°16' E 004°13'0 0.0
2017-Mar-06 02:32N 51°16' E 004°13'0 0.0
2017-Mar-06 01:32N 51°16' E 004°13'0 0.0
2017-Mar-06 00:32N 51°16' E 004°13'0 0.0
2017-Mar-05 23:33N 51°16' E 004°13'1 1.2
2017-Mar-05 22:33N 51°17' E 004°15'1 1.5
2017-Mar-05 21:33N 51°18' E 004°16'6 6.4
2017-Mar-05 20:33N 51°23' E 004°10'9 8.9
2017-Mar-05 19:33N 51°22' E 003°55'1211.7
2017-Mar-05 18:33N 51°26' E 003°38'10 9.7
2017-Mar-05 17:33N 51°32' E 003°25'1212.1
2017-Mar-05 16:33N 51°42' E 003°15'9 7.6
2017-Mar-05 15:25N 51°51' E 003°16'7213.9
2017-Mar-05 10:14N 52°58' E 004°01'1115.0
2017-Mar-05 09:29N 53°05' E 004°16'12314.8
2017-Mar-05 01:13N 53°58' E 007°22'1014.8
2017-Mar-05 00:33N 53°59' E 007°38'1212.2
2017-Mar-04 23:33N 53°52' E 007°55'1312.6
2017-Mar-04 22:33N 53°45' E 008°13'1414.4
2017-Mar-04 21:33N 53°35' E 008°31'2 1.8
2017-Mar-04 20:33N 53°34' E 008°33'0 0.5
2017-Mar-04 19:31N 53°35' E 008°33'0 0.0
2017-Mar-04 18:31N 53°35' E 008°33'0 0.0
2017-Mar-04 17:31N 53°35' E 008°33'0 0.0
2017-Mar-04 16:31N 53°35' E 008°33'0 0.0
2017-Mar-04 15:31N 53°35' E 008°33'0 0.0
2017-Mar-04 14:31N 53°35' E 008°33'0 0.0
2017-Mar-04 13:31N 53°35' E 008°33'0 0.0
2017-Mar-04 12:31N 53°35' E 008°33'0 0.0
2017-Mar-04 11:31N 53°35' E 008°33'  
Track history (hours):
 
Tides and Currents Weather Stations Pressure Air Temp Water Temp Dewpoint Dewpoint Depression Visibility Wind Speed Wind Dir Waves Ship Positions

Morning Charlotte

Last reported at 2017-Mar-14 11:30 UTC. Time now 2017-Mar-23 12:26 UTC.
Position N 36°25' E 014°44'.
Warning: this ship's position is 9 days out of date.

Length 200 m; draft 9.4 m.

Type: Cargo ship. MMSI: 357275000.

Date/timePositionNaut miles runAvg speedWind from/ knotsBaromVisibWave heightAir tempDewpointWater temp
2017-Mar-14 11:30N 36°25' E 014°44'1616.8
2017-Mar-14 10:33N 36°29' E 014°24'1716.7
2017-Mar-14 09:34N 36°33' E 014°05'1716.4
2017-Mar-14 08:33N 36°37' E 013°45'65117.0
2017-Mar-12 18:12N 36°49' E 000°13'24618.0
2017-Mar-12 04:32N 36°03' W 004°47'1919.2
2017-Mar-12 03:33N 36°00' W 005°11'2019.7
2017-Mar-12 02:33N 35°55' W 005°34'1919.0
2017-Mar-12 01:34N 35°53' W 005°58'16117.5
2017-Mar-11 16:21N 36°33' W 009°11'1517.5
2017-Mar-11 15:31N 36°42' W 009°25'1817.1
2017-Mar-11 14:27N 36°58' W 009°36'1617.6
2017-Mar-11 13:33N 37°13' W 009°40'1917.9
2017-Mar-11 12:30N 37°32' W 009°46'1917.7
2017-Mar-11 11:27N 37°50' W 009°52'1617.7
2017-Mar-11 10:33N 38°05' W 009°57'1817.8
2017-Mar-11 09:33N 38°22' W 010°01'1817.7
2017-Mar-11 08:33N 38°40' W 010°07'1717.3
2017-Mar-11 07:33N 38°57' W 010°05'1817.9
2017-Mar-11 06:33N 39°15' W 010°04'2617.5
2017-Mar-11 05:06N 39°40' W 010°04'4917.5
2017-Mar-11 02:19N 40°29' W 010°05'3317.3
2017-Mar-11 00:23N 41°02' W 010°05'3117.1
2017-Mar-10 22:33N 41°34' W 010°05'1717.1
2017-Mar-10 21:33N 41°51' W 010°05'1717.2
2017-Mar-10 20:33N 42°08' W 010°05'1817.2
2017-Mar-10 19:30N 42°26' W 010°09'1617.1
2017-Mar-10 18:33N 42°42' W 010°08'38916.1
2017-Mar-09 18:21N 48°32' W 006°05'1316.8
2017-Mar-09 17:33N 48°44' W 005°56'1515.5
2017-Mar-09 16:33N 48°57' W 005°43'1514.7
2017-Mar-09 15:34N 49°05' W 005°24'1413.7
2017-Mar-09 14:32N 49°13' W 005°06'1514.1
2017-Mar-09 13:28N 49°20' W 004°46'5015.4
2017-Mar-09 10:13N 49°44' W 003°38'1116.7
2017-Mar-09 09:34N 49°50' W 003°24'1716.5
2017-Mar-09 08:34N 49°58' W 003°02'1515.5
2017-Mar-09 07:34N 50°03' W 002°39'1414.2
2017-Mar-09 06:34N 50°08' W 002°18'1313.1
2017-Mar-09 05:33N 50°12' W 001°58'1312.7
2017-Mar-09 04:33N 50°16' W 001°40'1313.4
2017-Mar-09 03:34N 50°21' W 001°20'1414.4
2017-Mar-09 02:33N 50°30' W 001°03'1211.7
2017-Mar-09 01:34N 50°41' W 000°57'1313.0
2017-Mar-09 00:34N 50°46' W 001°15'7 6.7
2017-Mar-08 23:33N 50°52' W 001°22'2 2.1
2017-Mar-08 22:33N 50°53' W 001°24'0 0.0
2017-Mar-08 21:33N 50°53' W 001°24'0 0.0
2017-Mar-08 20:33N 50°53' W 001°24'0 0.0
2017-Mar-08 19:33N 50°53' W 001°24'0 0.0
2017-Mar-08 18:33N 50°53' W 001°24'0 0.0
2017-Mar-08 17:30N 50°53' W 001°24'0 0.0
2017-Mar-08 16:33N 50°53' W 001°24'0 0.0
2017-Mar-08 15:33N 50°53' W 001°24'0 0.0
2017-Mar-08 14:33N 50°53' W 001°24'0 0.0
2017-Mar-08 13:33N 50°53' W 001°24'0 0.0
2017-Mar-08 12:30N 50°53' W 001°24'0 0.0
2017-Mar-08 11:33N 50°53' W 001°24'4 3.6
2017-Mar-08 10:33N 50°51' W 001°20'1010.4
2017-Mar-08 09:33N 50°45' W 001°06'1010.5
2017-Mar-08 08:34N 50°38' W 000°54'1111.2
2017-Mar-08 07:33N 50°34' W 000°37'1616.2
2017-Mar-08 06:33N 50°31' W 000°12'1515.3
2017-Mar-08 05:33N 50°34' E 000°11'1514.8
2017-Mar-08 04:33N 50°37' E 000°34'1515.4
2017-Mar-08 03:33N 50°45' E 000°55'1716.9
2017-Mar-08 02:33N 50°57' E 001°15'1817.5
2017-Mar-08 01:33N 51°08' E 001°35'1717.0
2017-Mar-08 00:33N 51°20' E 001°54'1414.1
2017-Mar-07 23:33N 51°21' E 002°17'1515.0
2017-Mar-07 22:33N 51°23' E 002°41'1312.8
2017-Mar-07 21:33N 51°24' E 003°01'1514.8
2017-Mar-07 20:33N 51°25' E 003°25'9 9.0
2017-Mar-07 19:33N 51°26' E 003°39'1110.8
2017-Mar-07 18:33N 51°22' E 003°54'7 7.1
2017-Mar-07 17:33N 51°22' E 004°06'8 7.8
2017-Mar-07 16:33N 51°18' E 004°17'3 2.5
2017-Mar-07 15:33N 51°16' E 004°17'2 2.1
2017-Mar-07 14:33N 51°17' E 004°14'1 0.5
2017-Mar-07 13:32N 51°16' E 004°13'0 0.0
2017-Mar-07 12:32N 51°16' E 004°13'0 0.0
2017-Mar-07 11:29N 51°16' E 004°13'0 0.0
2017-Mar-07 10:32N 51°16' E 004°13'0 0.0
2017-Mar-07 09:32N 51°16' E 004°13'0 0.0
2017-Mar-07 08:32N 51°16' E 004°13'0 0.0
2017-Mar-07 07:32N 51°16' E 004°13'0 0.0
2017-Mar-07 06:32N 51°16' E 004°13'0 0.0
2017-Mar-07 05:32N 51°16' E 004°13'0 0.0
2017-Mar-07 04:32N 51°16' E 004°13'0 0.0
2017-Mar-07 03:32N 51°16' E 004°13'0 0.0
2017-Mar-07 02:32N 51°16' E 004°13'0 0.0
2017-Mar-07 01:32N 51°16' E 004°13'0 0.0
2017-Mar-07 00:32N 51°16' E 004°13'0 0.0
2017-Mar-06 23:32N 51°16' E 004°13'0 0.0
2017-Mar-06 22:32N 51°16' E 004°13'0 0.0
2017-Mar-06 21:32N 51°16' E 004°13'0 0.0
2017-Mar-06 20:32N 51°16' E 004°13'0 0.0
2017-Mar-06 19:32N 51°16' E 004°13'0 0.0
2017-Mar-06 18:32N 51°16' E 004°13'0 0.0
2017-Mar-06 17:32N 51°16' E 004°13'0 0.0
2017-Mar-06 16:32N 51°16' E 004°13'0 0.0
2017-Mar-06 15:32N 51°16' E 004°13'0 0.0
2017-Mar-06 14:32N 51°16' E 004°13'0 0.0
2017-Mar-06 13:33N 51°16' E 004°13'0 0.0
2017-Mar-06 12:29N 51°16' E 004°13'0 0.0
2017-Mar-06 11:32N 51°16' E 004°13'0 0.0
2017-Mar-06 10:32N 51°16' E 004°13'0 0.0
2017-Mar-06 09:32N 51°16' E 004°13'0 0.0
2017-Mar-06 08:32N 51°16' E 004°13'0 0.0
2017-Mar-06 07:32N 51°16' E 004°13'0 0.0
2017-Mar-06 06:32N 51°16' E 004°13'0 0.0
2017-Mar-06 05:32N 51°16' E 004°13'0 0.0
2017-Mar-06 04:32N 51°16' E 004°13'0 0.0
2017-Mar-06 03:32N 51°16' E 004°13'0 0.0
2017-Mar-06 02:32N 51°16' E 004°13'0 0.0
2017-Mar-06 01:32N 51°16' E 004°13'0 0.0
2017-Mar-06 00:32N 51°16' E 004°13'0 0.0
2017-Mar-05 23:33N 51°16' E 004°13'1 1.2
2017-Mar-05 22:33N 51°17' E 004°15'1 1.5
2017-Mar-05 21:33N 51°18' E 004°16'6 6.4
2017-Mar-05 20:33N 51°23' E 004°10'9 8.9
2017-Mar-05 19:33N 51°22' E 003°55'1211.7
2017-Mar-05 18:33N 51°26' E 003°38'10 9.7
2017-Mar-05 17:33N 51°32' E 003°25'1212.1
2017-Mar-05 16:33N 51°42' E 003°15'9 7.6
2017-Mar-05 15:25N 51°51' E 003°16'7213.9
2017-Mar-05 10:14N 52°58' E 004°01'1115.0
2017-Mar-05 09:29N 53°05' E 004°16'12314.8
2017-Mar-05 01:13N 53°58' E 007°22'1014.8
2017-Mar-05 00:33N 53°59' E 007°38'1212.2
2017-Mar-04 23:33N 53°52' E 007°55'1312.6
2017-Mar-04 22:33N 53°45' E 008°13'1414.4
2017-Mar-04 21:33N 53°35' E 008°31'2 1.8
2017-Mar-04 20:33N 53°34' E 008°33'0 0.5
2017-Mar-04 19:31N 53°35' E 008°33'0 0.0
2017-Mar-04 18:31N 53°35' E 008°33'0 0.0
2017-Mar-04 17:31N 53°35' E 008°33'0 0.0
2017-Mar-04 16:31N 53°35' E 008°33'0 0.0
2017-Mar-04 15:31N 53°35' E 008°33'0 0.0
2017-Mar-04 14:31N 53°35' E 008°33'0 0.0
2017-Mar-04 13:31N 53°35' E 008°33'0 0.0
2017-Mar-04 12:31N 53°35' E 008°33'0 0.0
2017-Mar-04 11:31N 53°35' E 008°33'  

Dump ship's entire track history